Hancock Park, CA (90004)

6:26 AM PST on January 27, 2015 (GMT -0800)
MacDumes - Park La Brea | Change Station
CLOSE
Current Station
Personal Weather Station
Location: Los Angeles, CA
Elevation: 217 ft
Nearby Weather Stations

Elev 217 ft 34.07 °N, 118.35 °W | Updated 59 seconds ago

Overcast
Overcast
57.9 °F
Feels Like 57.9 °F
N
0.0
Wind Variable Wind from SE
Gusts 0.0 mph

Today
High -- | Low -- °F
--% Chance of Precip.
Yesterday
High -- | Low -- °F
Precip. -- in
6:53 AM 5:18 PM
First Quarter, 54% visible
Pressure 30.14 in
Visibility 8.0 miles
Clouds Overcast 10000 ft
Dew Point 58 °F
Humidity 99%
Rainfall 0.00 in
Snow Depth Not available.
UV 0 out of 12
Pollen 6.10 out of 12
Air Quality Not available.
Flu Activity Not available.
METAR KCQT 271347Z AUTO 00000KT 8SM OVC100 14/12 A3015 RMK AO2 SLP207 T01440117 $

More Conditions Fewer Conditions

Pressure 30.14 in
Visibility 8.0 miles
Clouds Overcast 10000 ft
Dew Point 58 °F
Humidity 99%
Rainfall 0.00 in
Snow Depth Not available.
UV 0 out of 12
Pollen 6.10 out of 12
Air Quality Not available.
Flu Activity Not available.
METAR KCQT 271347Z AUTO 00000KT 8SM OVC100 14/12 A3015 RMK AO2 SLP207 T01440117 $

More Conditions Fewer Conditions

10-Day Weather Forecast

Almanac

Astronomy

Jan. 27, 2015 Rise Set
Actual Time
Civil Twilight
Nautical Twilight
Astronomical Twilight
Moon
Length of Visible Light
Length of Day
Tomorrow will be .
, % of the Moon is Illuminated

Today's Extremes

State Highs State Lows

Community

WunderPhotos

Upload Photos

1,790,648 photos uploaded!

WunderBlogs® & News

Nearby

Air Quality

  Air Quality AQ Index Pollutant
Not available.

Snow Depth

Station Depth Elevation

Earthquake Activity

City Distance Mag. Time & Date
Minimum magnitude displayed is 2.5.

Coastal Water Temperatures

Place Temperature

Nearby Weather Stations